Time;durP1;ratioP1;P1;durP2;ratioP2;P2;SDS_P1;SDS_P2;PMS_P1;PMS_P2;Temp;Humidity;BMP_temperature;BMP_pressure;BME280_temperature;BME280_humidity;BME280_pressure;Samples;Min_cycle;Max_cycle;Signal;HPM_P1;HPM_P2
2021/09/20 00:00:35;;;;;;;0.40;0.40;;;13.70;99.90;;;;;;5085891;28;20204;-79
2021/09/20 00:03:01;;;;;;;0.53;0.53;;;13.70;99.90;;;;;;5074725;28;20180;-78
2021/09/20 00:05:26;;;;;;;1.50;0.50;;;13.70;99.90;;;;;;5077411;28;20188;-78
2021/09/20 00:07:52;;;;;;;0.40;0.40;;;13.70;99.90;;;;;;5079644;28;20213;-78
2021/09/20 00:10:18;;;;;;;0.47;0.33;;;13.70;99.90;;;;;;5081548;28;20596;-79
2021/09/20 00:12:44;;;;;;;0.73;0.67;;;13.60;99.90;;;;;;5081207;28;20263;-78
2021/09/20 00:15:11;;;;;;;0.57;0.30;;;13.80;99.90;;;;;;5086742;28;20208;-79
2021/09/20 00:17:36;;;;;;;0.30;0.30;;;13.80;99.90;;;;;;5064239;28;20184;-79
2021/09/20 00:20:05;;;;;;;0.53;0.53;;;13.70;99.90;;;;;;5076149;28;20189;-79
2021/09/20 00:22:30;;;;;;;0.10;0.10;;;13.70;99.90;;;;;;5089818;28;20188;-78
2021/09/20 00:24:56;;;;;;;2.03;0.33;;;13.80;99.90;;;;;;5073510;28;20535;-79
2021/09/20 00:27:22;;;;;;;0.83;0.83;;;13.70;99.90;;;;;;5082631;28;20202;-78
2021/09/20 00:29:47;;;;;;;0.20;0.20;;;13.70;99.90;;;;;;5078813;28;20219;-78
2021/09/20 00:32:13;;;;;;;0.90;0.50;;;13.70;99.90;;;;;;5085689;28;20212;-78
2021/09/20 00:34:39;;;;;;;0.30;0.30;;;13.70;99.90;;;;;;5084141;28;20646;-78
2021/09/20 00:37:04;;;;;;;0.73;0.73;;;13.70;99.90;;;;;;5076007;28;20185;-78
2021/09/20 00:39:30;;;;;;;0.17;0.17;;;13.70;99.90;;;;;;5090814;28;20275;-78
2021/09/20 00:41:56;;;;;;;1.00;0.30;;;13.70;99.90;;;;;;5093624;28;20200;-79
2021/09/20 00:44:21;;;;;;;1.53;0.63;;;13.60;99.90;;;;;;5102244;28;20184;-78
2021/09/20 00:46:47;;;;;;;0.93;0.40;;;13.60;99.90;;;;;;5060736;28;20657;-78
2021/09/20 00:49:12;;;;;;;0.63;0.40;;;13.60;99.90;;;;;;5080242;28;20693;-80
2021/09/20 00:51:38;;;;;;;0.50;0.50;;;13.60;99.90;;;;;;5087634;28;20211;-79
2021/09/20 00:54:04;;;;;;;0.30;0.30;;;13.60;99.90;;;;;;5090622;28;20207;-79
2021/09/20 00:56:30;;;;;;;0.83;0.83;;;13.70;99.90;;;;;;5082968;28;20213;-78
2021/09/20 00:58:56;;;;;;;0.30;0.30;;;13.60;99.90;;;;;;5079784;28;20657;-78
2021/09/20 01:01:23;;;;;;;1.27;0.43;;;13.60;99.90;;;;;;5088065;28;20222;-79
2021/09/20 01:03:48;;;;;;;0.30;0.30;;;13.60;99.90;;;;;;5089852;28;20184;-78
2021/09/20 01:06:14;;;;;;;0.20;0.20;;;13.60;99.90;;;;;;5075645;28;20195;-78
2021/09/20 01:08:40;;;;;;;0.80;0.30;;;13.60;99.90;;;;;;5084351;28;20188;-78
2021/09/20 01:11:05;;;;;;;0.80;0.30;;;13.60;99.90;;;;;;5097854;28;20247;-78
2021/09/20 01:13:31;;;;;;;0.50;0.50;;;13.60;99.90;;;;;;5079559;28;20627;-78
2021/09/20 01:15:56;;;;;;;0.97;0.47;;;13.50;99.90;;;;;;5077988;28;20600;-79
2021/09/20 01:18:22;;;;;;;0.40;0.40;;;13.50;99.90;;;;;;5081523;28;20180;-78
2021/09/20 01:20:48;;;;;;;0.30;0.27;;;13.50;99.90;;;;;;5076978;28;20702;-78
2021/09/20 01:23:14;;;;;;;0.20;0.20;;;13.50;99.90;;;;;;5075245;28;20196;-79
2021/09/20 01:25:42;;;;;;;0.60;0.60;;;13.50;99.90;;;;;;5070753;28;20181;-78
2021/09/20 01:28:08;;;;;;;0.97;0.97;;;13.40;99.90;;;;;;5079218;28;20572;-78
2021/09/20 01:30:34;;;;;;;0.20;0.20;;;13.40;99.90;;;;;;5069379;28;20304;-79
2021/09/20 01:33:00;;;;;;;0.50;0.50;;;13.40;99.90;;;;;;5070873;28;20180;-78
2021/09/20 01:35:26;;;;;;;0.30;0.30;;;13.40;99.90;;;;;;5075725;28;20188;-78
2021/09/20 01:37:52;;;;;;;0.20;0.20;;;13.40;99.90;;;;;;5088387;28;20633;-78
2021/09/20 01:40:19;;;;;;;0.50;0.50;;;13.40;99.90;;;;;;5083853;28;20277;-78
2021/09/20 01:42:45;;;;;;;1.40;0.40;;;13.30;99.90;;;;;;5084532;28;20598;-79
2021/09/20 01:45:12;;;;;;;0.93;0.33;;;13.30;99.90;;;;;;5074562;28;20192;-78
2021/09/20 01:47:38;;;;;;;0.20;0.20;;;13.40;99.90;;;;;;5074156;28;20184;-78
2021/09/20 01:50:05;;;;;;;0.47;0.40;;;13.40;99.90;;;;;;5083342;28;20203;-78
2021/09/20 01:52:30;;;;;;;0.53;0.53;;;13.30;99.90;;;;;;5097792;28;20220;-78
2021/09/20 01:54:56;;;;;;;0.53;0.30;;;13.40;99.90;;;;;;5087055;28;20852;-78
2021/09/20 01:57:23;;;;;;;0.57;0.30;;;13.40;99.90;;;;;;5085082;28;20268;-78
2021/09/20 01:59:50;;;;;;;0.73;0.73;;;13.30;99.90;;;;;;5079005;28;20197;-78
2021/09/20 02:02:16;;;;;;;0.80;0.80;;;13.40;99.90;;;;;;5090345;28;20265;-78
2021/09/20 02:04:41;;;;;;;0.20;0.20;;;13.30;99.90;;;;;;5089033;28;20192;-78
2021/09/20 02:07:07;;;;;;;1.40;0.30;;;13.50;99.90;;;;;;5080863;28;20185;-78
2021/09/20 02:09:33;;;;;;;0.30;0.27;;;13.60;99.90;;;;;;5086743;28;20208;-78
2021/09/20 02:11:59;;;;;;;0.30;0.20;;;13.40;99.90;;;;;;5083162;28;20201;-78
2021/09/20 02:14:24;;;;;;;1.07;0.40;;;13.40;99.90;;;;;;5084275;28;20191;-79
2021/09/20 02:16:50;;;;;;;0.47;0.40;;;13.40;99.90;;;;;;5076803;28;20234;-78
2021/09/20 02:19:16;;;;;;;0.30;0.30;;;13.40;99.90;;;;;;5081511;28;20184;-78
2021/09/20 02:21:41;;;;;;;0.10;0.10;;;13.40;99.90;;;;;;5087648;28;20208;-79
2021/09/20 02:24:07;;;;;;;0.17;0.17;;;13.40;99.90;;;;;;5077664;28;20206;-78
2021/09/20 02:26:33;;;;;;;0.20;0.20;;;13.40;99.90;;;;;;5072486;28;20275;-79
2021/09/20 02:28:58;;;;;;;0.43;0.43;;;13.30;99.90;;;;;;5083553;28;20324;-78
2021/09/20 02:31:24;;;;;;;3.83;0.70;;;13.40;99.90;;;;;;5083488;28;20208;-78
2021/09/20 02:33:49;;;;;;;0.60;0.53;;;13.30;99.90;;;;;;5080354;28;20192;-79
2021/09/20 02:36:15;;;;;;;0.73;0.63;;;13.30;99.90;;;;;;5102179;28;20176;-78
2021/09/20 02:38:41;;;;;;;0.30;0.30;;;13.30;99.90;;;;;;5086531;28;20608;-78
2021/09/20 02:41:07;;;;;;;0.47;0.40;;;13.40;99.90;;;;;;5083506;28;20577;-78
2021/09/20 02:43:34;;;;;;;0.10;0.10;;;13.50;99.90;;;;;;5068975;28;20220;-78
2021/09/20 02:46:00;;;;;;;0.17;0.17;;;13.40;99.90;;;;;;5068789;28;20208;-78
2021/09/20 02:48:26;;;;;;;0.80;0.53;;;13.30;99.90;;;;;;5079355;28;20188;-79
2021/09/20 02:50:51;;;;;;;0.33;0.33;;;13.30;99.90;;;;;;5067096;28;20216;-78
2021/09/20 02:53:17;;;;;;;1.17;0.47;;;13.30;99.90;;;;;;5083270;28;20642;-79
2021/09/20 02:55:43;;;;;;;0.43;0.43;;;13.30;99.90;;;;;;5081526;28;20180;-78
2021/09/20 02:58:08;;;;;;;3.20;0.60;;;13.20;99.90;;;;;;5084375;28;20184;-78
2021/09/20 03:00:35;;;;;;;0.50;0.50;;;13.10;99.90;;;;;;5085494;28;20733;-79
2021/09/20 03:03:01;;;;;;;0.90;0.60;;;13.10;99.90;;;;;;5077005;28;20186;-78
2021/09/20 03:05:27;;;;;;;0.80;0.80;;;13.20;99.90;;;;;;5083082;28;20226;-78
2021/09/20 03:07:53;;;;;;;0.27;0.27;;;13.10;99.90;;;;;;5090185;28;20216;-79
2021/09/20 03:10:19;;;;;;;0.33;0.33;;;13.10;99.90;;;;;;5076914;28;20216;-79
2021/09/20 03:12:45;;;;;;;1.03;0.37;;;13.10;99.90;;;;;;5085874;28;20189;-79
2021/09/20 03:15:11;;;;;;;0.30;0.30;;;13.10;99.90;;;;;;5078041;28;20193;-79
2021/09/20 03:17:37;;;;;;;0.30;0.30;;;13.10;99.90;;;;;;5088279;28;20175;-78
2021/09/20 03:20:03;;;;;;;0.60;0.40;;;13.20;99.90;;;;;;5081644;28;20605;-79
2021/09/20 03:22:29;;;;;;;0.30;0.30;;;13.30;99.90;;;;;;5087997;28;20215;-78
2021/09/20 03:24:54;;;;;;;1.10;0.37;;;13.30;99.90;;;;;;5090510;28;20176;-79
2021/09/20 03:27:20;;;;;;;0.20;0.20;;;13.20;99.90;;;;;;5071515;28;20208;-78
2021/09/20 03:29:46;;;;;;;0.33;0.33;;;13.20;99.90;;;;;;5065143;28;20626;-79
2021/09/20 03:32:11;;;;;;;0.20;0.20;;;13.20;99.90;;;;;;5076000;28;20292;-79
2021/09/20 03:34:37;;;;;;;0.70;0.70;;;13.20;99.90;;;;;;5077927;28;20626;-79
2021/09/20 03:37:03;;;;;;;0.40;0.40;;;13.10;99.90;;;;;;5075547;28;20653;-79
2021/09/20 03:39:28;;;;;;;0.50;0.50;;;13.10;99.90;;;;;;5070836;28;20215;-79
2021/09/20 03:41:54;;;;;;;1.47;0.47;;;13.10;99.90;;;;;;5082045;28;20258;-79
2021/09/20 03:44:20;;;;;;;0.67;0.30;;;13.20;99.90;;;;;;5081945;28;20184;-79
2021/09/20 03:46:45;;;;;;;0.23;0.23;;;13.10;99.90;;;;;;5066164;28;20594;-78
2021/09/20 03:49:11;;;;;;;0.80;0.57;;;13.30;99.90;;;;;;5076882;28;20227;-79
2021/09/20 03:51:36;;;;;;;0.40;0.40;;;13.30;99.90;;;;;;5071893;28;20671;-78
2021/09/20 03:54:04;;;;;;;0.40;0.40;;;13.60;99.90;;;;;;5085605;28;20290;-81
2021/09/20 03:56:29;;;;;;;0.50;0.30;;;13.70;99.90;;;;;;5077217;28;20211;-81
2021/09/20 03:58:55;;;;;;;0.37;0.37;;;13.60;99.90;;;;;;5075262;28;20295;-81
2021/09/20 04:01:21;;;;;;;0.43;0.43;;;13.60;99.90;;;;;;5089008;28;20253;-81
2021/09/20 04:03:46;;;;;;;0.63;0.63;;;13.40;99.90;;;;;;5079100;28;20187;-81
2021/09/20 04:06:12;;;;;;;0.50;0.50;;;13.40;99.90;;;;;;5080249;28;20185;-81
2021/09/20 04:08:38;;;;;;;1.00;0.37;;;13.40;99.90;;;;;;5076929;28;20212;-81
2021/09/20 04:11:03;;;;;;;0.20;0.20;;;13.30;99.90;;;;;;5065269;28;20572;-81
2021/09/20 04:13:29;;;;;;;0.77;0.67;;;13.40;99.90;;;;;;5060903;28;20183;-81
2021/09/20 04:15:56;;;;;;;1.23;0.43;;;13.40;99.90;;;;;;5070809;28;20215;-81
2021/09/20 04:18:22;;;;;;;0.73;0.40;;;13.40;99.90;;;;;;5068385;28;20222;-81
2021/09/20 04:20:49;;;;;;;0.60;0.60;;;13.30;99.90;;;;;;5069819;28;20228;-81
2021/09/20 04:23:15;;;;;;;0.20;0.20;;;13.20;99.90;;;;;;5062637;28;20243;-81
2021/09/20 04:25:41;;;;;;;0.60;0.60;;;13.00;99.90;;;;;;5072330;28;20643;-81
2021/09/20 04:28:06;;;;;;;0.30;0.30;;;13.00;99.90;;;;;;5065878;28;20232;-81
2021/09/20 04:30:32;;;;;;;0.47;0.33;;;13.00;99.90;;;;;;5063866;28;20596;-81
2021/09/20 04:32:58;;;;;;;1.10;1.00;;;12.80;99.90;;;;;;5066722;28;20195;-81
2021/09/20 04:35:23;;;;;;;0.70;0.70;;;12.80;99.90;;;;;;5067382;28;20661;-81
2021/09/20 04:37:49;;;;;;;0.80;0.80;;;12.90;99.90;;;;;;5069447;28;20199;-81
2021/09/20 04:40:14;;;;;;;1.13;0.90;;;12.90;99.90;;;;;;5065534;28;20192;-81
2021/09/20 04:42:40;;;;;;;1.10;0.47;;;12.90;99.90;;;;;;5064815;28;20665;-81
2021/09/20 04:45:06;;;;;;;0.80;0.67;;;13.00;99.90;;;;;;5068264;28;20661;-82
2021/09/20 04:47:32;;;;;;;0.37;0.37;;;12.90;99.90;;;;;;5064945;28;20420;-82
2021/09/20 04:49:57;;;;;;;0.63;0.60;;;12.90;99.90;;;;;;5067313;28;20295;-81
2021/09/20 04:52:23;;;;;;;0.63;0.63;;;12.80;99.90;;;;;;5066725;28;20209;-81
2021/09/20 04:54:49;;;;;;;0.73;0.27;;;12.70;99.90;;;;;;5081582;28;20280;-80
2021/09/20 04:57:14;;;;;;;0.33;0.33;;;12.90;99.90;;;;;;5075283;28;20194;-80
2021/09/20 04:59:40;;;;;;;0.63;0.43;;;13.00;99.90;;;;;;5068408;28;20217;-80
2021/09/20 05:02:05;;;;;;;0.50;0.50;;;13.00;99.90;;;;;;5070216;28;20197;-80
2021/09/20 05:04:31;;;;;;;0.20;0.20;;;12.90;99.90;;;;;;5068882;28;20292;-80
2021/09/20 05:06:56;;;;;;;0.50;0.50;;;12.90;99.90;;;;;;5072355;28;20187;-80
2021/09/20 05:09:22;;;;;;;4.17;0.57;;;12.80;99.90;;;;;;5073208;28;20589;-82
2021/09/20 05:11:48;;;;;;;1.93;0.50;;;12.80;99.90;;;;;;5070874;28;20216;-81
2021/09/20 05:14:13;;;;;;;1.37;1.27;;;12.80;99.90;;;;;;5075060;28;20191;-82
2021/09/20 05:16:39;;;;;;;1.27;0.67;;;12.80;99.90;;;;;;5074810;28;20204;-81
2021/09/20 05:19:05;;;;;;;0.37;0.23;;;12.90;99.90;;;;;;5073345;28;20211;-82
2021/09/20 05:21:31;;;;;;;0.33;0.33;;;13.00;99.90;;;;;;5070849;28;20230;-82
2021/09/20 05:23:57;;;;;;;0.20;0.20;;;13.20;99.90;;;;;;5074718;28;20188;-82
2021/09/20 05:26:23;;;;;;;1.30;0.50;;;13.00;99.90;;;;;;5075071;28;20242;-82
2021/09/20 05:28:49;;;;;;;2.63;1.37;;;13.00;99.90;;;;;;5070989;28;20203;-83
2021/09/20 05:31:15;;;;;;;0.73;0.73;;;12.90;99.90;;;;;;5073877;28;20295;-83
2021/09/20 05:33:41;;;;;;;0.30;0.30;;;12.80;99.90;;;;;;5075332;28;20193;-83
2021/09/20 05:36:07;;;;;;;0.40;0.40;;;12.80;99.90;;;;;;5090900;28;20575;-82
2021/09/20 05:38:35;;;;;;;0.80;0.30;;;12.90;99.90;;;;;;5071127;28;20187;-82
2021/09/20 05:41:01;;;;;;;0.37;0.37;;;13.00;99.90;;;;;;5075540;28;20284;-82
2021/09/20 05:43:26;;;;;;;0.77;0.77;;;13.10;99.90;;;;;;5074384;28;20278;-82
2021/09/20 05:45:52;;;;;;;0.23;0.23;;;12.90;99.90;;;;;;5067368;28;20190;-81
2021/09/20 05:48:20;;;;;;;0.53;0.43;;;12.90;99.90;;;;;;5069094;28;20193;-82
2021/09/20 05:50:46;;;;;;;0.60;0.37;;;12.90;99.90;;;;;;5071780;28;20220;-81
2021/09/20 05:53:13;;;;;;;0.47;0.47;;;13.00;99.90;;;;;;5072647;28;20246;-82
2021/09/20 05:55:39;;;;;;;0.73;0.73;;;13.10;99.90;;;;;;5086467;28;20189;-82
2021/09/20 05:58:04;;;;;;;0.70;0.70;;;13.20;99.90;;;;;;5083416;28;20182;-81
2021/09/20 06:00:30;;;;;;;0.60;0.60;;;13.10;99.90;;;;;;5083745;28;20260;-81
2021/09/20 06:02:56;;;;;;;0.50;0.50;;;13.10;99.90;;;;;;5075012;28;20209;-81
2021/09/20 06:05:23;;;;;;;0.20;0.20;;;13.10;99.90;;;;;;5071876;28;20185;-81
2021/09/20 06:07:48;;;;;;;0.20;0.20;;;13.20;99.90;;;;;;5074947;28;20191;-81
2021/09/20 06:10:15;;;;;;;1.57;1.47;;;13.30;99.90;;;;;;5068884;28;20267;-81
2021/09/20 06:12:41;;;;;;;2.00;0.73;;;13.20;99.90;;;;;;5072236;28;20184;-82
2021/09/20 06:15:08;;;;;;;0.37;0.37;;;13.20;99.90;;;;;;5073611;28;20672;-82
2021/09/20 06:17:34;;;;;;;0.80;0.53;;;13.20;99.90;;;;;;5069291;28;20196;-82
2021/09/20 06:20:00;;;;;;;0.60;0.60;;;13.40;99.90;;;;;;5054590;28;20253;-81
2021/09/20 06:22:25;;;;;;;1.13;1.07;;;13.40;99.90;;;;;;5057854;28;20195;-81
2021/09/20 06:24:51;;;;;;;0.63;0.50;;;13.40;99.90;;;;;;5053436;28;20198;-81
2021/09/20 06:27:17;;;;;;;1.07;0.93;;;13.40;99.90;;;;;;5057394;28;20279;-81
2021/09/20 06:29:43;;;;;;;0.60;0.40;;;13.40;99.90;;;;;;5055102;28;20202;-81
2021/09/20 06:32:08;;;;;;;1.27;0.30;;;13.60;99.90;;;;;;5054768;28;20873;-82
2021/09/20 06:34:34;;;;;;;0.43;0.43;;;13.90;99.90;;;;;;5048948;28;20186;-82
2021/09/20 06:37:00;;;;;;;0.93;0.60;;;13.90;99.90;;;;;;5050232;28;20203;-81
2021/09/20 06:39:26;;;;;;;0.70;0.40;;;14.10;99.90;;;;;;5062413;28;20771;-82
2021/09/20 06:41:52;;;;;;;0.63;0.33;;;14.00;99.90;;;;;;5049548;28;20289;-82
2021/09/20 06:44:18;;;;;;;0.70;0.70;;;13.80;99.90;;;;;;5053344;28;20185;-82
2021/09/20 06:46:45;;;;;;;0.70;0.70;;;13.70;99.90;;;;;;5054809;28;20268;-82
2021/09/20 06:49:11;;;;;;;0.60;0.60;;;13.90;99.90;;;;;;5058069;28;20350;-81
2021/09/20 06:51:36;;;;;;;1.03;0.60;;;13.70;99.90;;;;;;5056647;28;20233;-82
2021/09/20 06:54:03;;;;;;;0.67;0.53;;;14.00;99.90;;;;;;5055924;28;20182;-82
2021/09/20 06:56:28;;;;;;;1.20;1.10;;;13.80;99.90;;;;;;5064732;28;20188;-82
2021/09/20 06:58:54;;;;;;;0.60;0.60;;;14.00;99.90;;;;;;5055237;28;20177;-82
2021/09/20 07:01:19;;;;;;;0.40;0.40;;;13.90;99.90;;;;;;5054511;28;20725;-81
2021/09/20 07:03:45;;;;;;;0.83;0.80;;;13.90;99.90;;;;;;5062073;28;20210;-81
2021/09/20 07:06:10;;;;;;;1.17;0.43;;;13.90;99.90;;;;;;5074200;28;20188;-81
2021/09/20 07:08:36;;;;;;;0.50;0.50;;;13.80;99.90;;;;;;5066831;28;20608;-82
2021/09/20 07:11:02;;;;;;;0.80;0.80;;;14.00;99.90;;;;;;5071424;28;20217;-82
2021/09/20 07:13:28;;;;;;;0.67;0.67;;;14.20;99.90;;;;;;5072765;28;20188;-82
2021/09/20 07:15:53;;;;;;;0.63;0.43;;;14.40;99.90;;;;;;5073272;28;20185;-82
2021/09/20 07:18:19;;;;;;;0.53;0.37;;;14.60;99.90;;;;;;5073705;28;20178;-82
2021/09/20 07:20:45;;;;;;;1.73;0.70;;;14.50;99.90;;;;;;5072236;28;20209;-82
2021/09/20 07:23:12;;;;;;;0.93;0.77;;;14.70;99.90;;;;;;5067249;28;20189;-82
2021/09/20 07:25:39;;;;;;;1.40;1.30;;;14.90;99.90;;;;;;5072422;28;20181;-83
2021/09/20 07:28:05;;;;;;;0.90;0.60;;;14.70;99.90;;;;;;5075221;28;20198;-82
2021/09/20 07:30:31;;;;;;;0.40;0.33;;;14.40;99.90;;;;;;5069026;28;20613;-81
2021/09/20 07:32:56;;;;;;;0.37;0.37;;;14.50;99.90;;;;;;5072145;28;20182;-81
2021/09/20 07:35:22;;;;;;;0.67;0.67;;;14.30;99.90;;;;;;5071790;28;20187;-81
2021/09/20 07:37:54;;;;;;;0.60;0.53;;;14.00;99.90;;;;;;5070401;28;20184;-82
2021/09/20 07:40:26;;;;;;;0.63;0.63;;;14.10;99.90;;;;;;5073262;28;20209;-81
2021/09/20 07:42:53;;;;;;;0.60;0.60;;;14.20;99.90;;;;;;5071254;28;20178;-82
2021/09/20 07:45:19;;;;;;;0.93;0.80;;;14.10;99.90;;;;;;5062012;28;20268;-82
2021/09/20 07:47:46;;;;;;;1.00;1.00;;;14.00;99.90;;;;;;5079259;28;20186;-81
2021/09/20 07:50:14;;;;;;;1.27;1.17;;;13.90;99.90;;;;;;5054958;28;20678;-81
2021/09/20 07:52:41;;;;;;;0.87;0.60;;;13.80;99.90;;;;;;5061110;28;20178;-81
2021/09/20 07:55:07;;;;;;;1.07;0.57;;;14.00;99.90;;;;;;5070289;28;20190;-80
2021/09/20 07:57:33;;;;;;;1.00;0.37;;;14.00;99.90;;;;;;5078686;28;20282;-80
2021/09/20 07:59:59;;;;;;;0.50;0.50;;;14.40;99.90;;;;;;5077232;28;20234;-81
2021/09/20 08:02:24;;;;;;;0.50;0.30;;;14.20;99.90;;;;;;5071984;28;20202;-82
2021/09/20 08:04:50;;;;;;;0.30;0.30;;;14.30;99.90;;;;;;5071929;28;20229;-83
2021/09/20 08:07:16;;;;;;;0.43;0.43;;;14.10;99.90;;;;;;5074218;28;20230;-81
2021/09/20 08:09:41;;;;;;;0.87;0.63;;;14.00;99.90;;;;;;5064244;28;20220;-82
2021/09/20 08:12:07;;;;;;;2.03;1.20;;;14.00;99.90;;;;;;5077447;28;20199;-81
2021/09/20 08:14:33;;;;;;;0.80;0.80;;;13.90;99.90;;;;;;5067278;28;20668;-81
2021/09/20 08:16:59;;;;;;;1.63;0.80;;;13.90;99.90;;;;;;5072561;28;20177;-82
2021/09/20 08:19:24;;;;;;;0.50;0.50;;;13.90;99.90;;;;;;5066316;28;20189;-81
2021/09/20 08:21:50;;;;;;;1.27;1.17;;;13.90;99.90;;;;;;5068009;28;20689;-81
2021/09/20 08:24:15;;;;;;;0.53;0.50;;;13.90;99.90;;;;;;5067031;28;20192;-82
2021/09/20 08:26:41;;;;;;;1.97;0.90;;;14.00;99.90;;;;;;5069813;28;20203;-81
2021/09/20 08:29:07;;;;;;;0.53;0.50;;;14.10;99.90;;;;;;5063875;28;20185;-82
2021/09/20 08:31:33;;;;;;;1.07;0.83;;;14.00;99.90;;;;;;5071950;28;20211;-82
2021/09/20 08:33:59;;;;;;;1.73;1.63;;;14.10;99.90;;;;;;5076924;28;20181;-82
2021/09/20 08:36:25;;;;;;;0.60;0.60;;;14.20;99.90;;;;;;5071573;28;20185;-81
2021/09/20 08:38:50;;;;;;;0.70;0.70;;;14.30;99.90;;;;;;5071484;28;20268;-81
2021/09/20 08:41:17;;;;;;;0.87;0.87;;;14.10;99.90;;;;;;5075161;28;20201;-82
2021/09/20 08:43:44;;;;;;;0.63;0.63;;;14.10;99.90;;;;;;5075773;28;20181;-81
2021/09/20 08:46:10;;;;;;;0.83;0.83;;;14.50;99.90;;;;;;5075466;28;20181;-81
2021/09/20 08:48:42;;;;;;;0.83;0.77;;;14.70;99.90;;;;;;5073883;28;20188;-82
2021/09/20 08:51:09;;;;;;;0.53;0.53;;;14.50;99.90;;;;;;5074082;28;20217;-81
2021/09/20 08:53:34;;;;;;;0.77;0.77;;;14.80;99.90;;;;;;5072649;28;20189;-82
2021/09/20 08:56:00;;;;;;;0.80;0.73;;;14.70;99.90;;;;;;5073560;28;20580;-81
2021/09/20 08:58:26;;;;;;;2.67;0.73;;;14.80;99.90;;;;;;5074850;28;20213;-81
2021/09/20 09:00:53;;;;;;;2.60;1.00;;;14.70;99.90;;;;;;5071192;28;20216;-81
2021/09/20 09:03:23;;;;;;;0.63;0.40;;;14.80;99.90;;;;;;5075502;28;20251;-82
2021/09/20 09:05:50;;;;;;;0.80;0.33;;;15.10;99.90;;;;;;5073796;28;20608;-81
2021/09/20 09:08:18;;;;;;;0.67;0.50;;;15.00;99.90;;;;;;5072019;28;20243;-82
2021/09/20 09:10:57;;;;;;;0.40;0.40;;;14.80;99.90;;;;;;5072110;28;20244;-81
2021/09/20 09:13:33;;;;;;;2.37;1.00;;;15.20;99.90;;;;;;5070918;28;20189;-81
2021/09/20 09:16:15;;;;;;;0.90;0.90;;;15.10;99.90;;;;;;5072539;28;20184;-81
2021/09/20 09:19:00;;;;;;;1.93;0.73;;;15.40;99.90;;;;;;5071002;28;20181;-82
2021/09/20 09:21:31;;;;;;;1.63;0.77;;;15.50;99.90;;;;;;5073450;28;20210;-82
2021/09/20 09:24:04;;;;;;;1.23;0.73;;;15.90;99.90;;;;;;5080471;28;20205;-81
2021/09/20 09:26:30;;;;;;;0.60;0.60;;;16.10;99.90;;;;;;5069123;28;20692;-81
2021/09/20 09:29:13;;;;;;;1.27;1.20;;;16.20;99.90;;;;;;5071800;28;20213;-81
2021/09/20 09:31:40;;;;;;;0.67;0.67;;;16.50;99.90;;;;;;5078890;28;20217;-81
2021/09/20 09:34:25;;;;;;;0.50;0.50;;;16.60;99.90;;;;;;5075426;28;20193;-81
2021/09/20 09:36:51;;;;;;;3.40;0.50;;;16.30;99.90;;;;;;5076325;28;20180;-81
2021/09/20 09:39:30;;;;;;;1.13;1.03;;;15.90;99.90;;;;;;5071769;28;20237;-81
2021/09/20 09:41:56;;;;;;;1.33;0.80;;;16.10;99.90;;;;;;5077058;28;20205;-82
2021/09/20 09:44:33;;;;;;;0.67;0.50;;;16.00;99.90;;;;;;5073520;28;20182;-82
2021/09/20 09:46:59;;;;;;;0.43;0.43;;;15.90;99.90;;;;;;5069923;28;20183;-81
2021/09/20 09:49:26;;;;;;;0.60;0.57;;;15.80;99.90;;;;;;5077325;28;20632;-81
2021/09/20 09:52:05;;;;;;;1.10;0.67;;;16.10;99.90;;;;;;5073841;28;20208;-83
2021/09/20 09:54:36;;;;;;;0.50;0.50;;;15.90;99.90;;;;;;5070999;28;20584;-82
2021/09/20 09:57:17;;;;;;;1.37;1.07;;;16.00;99.90;;;;;;5068035;28;20179;-83
2021/09/20 09:59:52;;;;;;;0.60;0.60;;;16.00;99.90;;;;;;5069274;28;20189;-83
2021/09/20 10:02:25;;;;;;;0.50;0.50;;;16.20;99.90;;;;;;5075742;28;20227;-83
2021/09/20 10:04:57;;;;;;;1.60;1.20;;;16.10;99.90;;;;;;5075397;28;20266;-83
2021/09/20 10:07:34;;;;;;;0.70;0.60;;;16.00;99.90;;;;;;5078323;28;20239;-83
2021/09/20 10:10:03;;;;;;;1.17;0.47;;;16.40;99.90;;;;;;5073973;28;20199;-82
2021/09/20 10:12:29;;;;;;;0.47;0.47;;;16.10;99.90;;;;;;5080000;28;20319;-83
2021/09/20 10:14:58;;;;;;;1.50;1.40;;;16.30;99.90;;;;;;5081774;28;20183;-82
2021/09/20 10:17:26;;;;;;;1.23;0.93;;;16.20;99.90;;;;;;5074494;28;20222;-82
2021/09/20 10:19:53;;;;;;;0.60;0.60;;;16.00;99.90;;;;;;5072084;28;20196;-83
2021/09/20 10:22:20;;;;;;;1.00;0.97;;;16.40;99.90;;;;;;5071294;28;20208;-82
2021/09/20 10:24:48;;;;;;;0.50;0.50;;;16.60;99.90;;;;;;5074365;28;20188;-83
2021/09/20 10:27:17;;;;;;;1.60;0.73;;;16.30;99.90;;;;;;5068686;28;20199;-82
2021/09/20 10:29:48;;;;;;;0.77;0.77;;;16.80;99.90;;;;;;5073233;28;20685;-82
2021/09/20 10:32:14;;;;;;;0.87;0.87;;;16.90;99.90;;;;;;5072656;28;20208;-82
2021/09/20 10:34:39;;;;;;;0.83;0.83;;;16.40;99.90;;;;;;5071071;28;20555;-82
2021/09/20 10:37:14;;;;;;;1.20;0.80;;;16.10;99.90;;;;;;5070931;28;20179;-81
2021/09/20 10:39:45;;;;;;;1.70;1.07;;;16.20;99.90;;;;;;5072941;28;20179;-82
2021/09/20 10:42:43;;;;;;;0.63;0.47;;;16.10;99.90;;;;;;5072626;28;20218;-82
2021/09/20 10:45:29;;;;;;;1.43;0.63;;;16.30;99.90;;;;;;5075763;28;20199;-82
2021/09/20 10:48:00;;;;;;;1.30;1.20;;;16.90;99.90;;;;;;5073658;28;20188;-81
2021/09/20 10:50:46;;;;;;;1.33;0.80;;;16.30;99.90;;;;;;5067081;28;20718;-82
2021/09/20 10:53:22;;;;;;;1.13;0.60;;;16.30;99.90;;;;;;5069759;28;20195;-82
2021/09/20 10:56:04;;;;;;;1.37;0.77;;;16.20;99.90;;;;;;5079971;28;20546;-82
2021/09/20 10:58:29;;;;;;;0.37;0.37;;;16.20;99.90;;;;;;5068751;28;20188;-82
2021/09/20 11:01:15;;;;;;;1.27;1.17;;;16.60;99.90;;;;;;5069509;28;20200;-82
2021/09/20 11:03:51;;;;;;;0.60;0.60;;;16.60;99.90;;;;;;5072815;28;20240;-81
2021/09/20 11:06:23;;;;;;;2.10;0.77;;;17.00;99.90;;;;;;5073511;28;20210;-82
2021/09/20 11:08:57;;;;;;;0.37;0.37;;;16.70;99.90;;;;;;5069720;28;20191;-81
2021/09/20 11:11:41;;;;;;;0.90;0.90;;;16.50;99.90;;;;;;5085410;28;20219;-81
2021/09/20 11:14:14;;;;;;;0.47;0.47;;;16.50;99.90;;;;;;5068249;28;20200;-83
2021/09/20 11:16:58;;;;;;;0.67;0.57;;;16.40;99.90;;;;;;5069326;28;20173;-83
2021/09/20 11:19:32;;;;;;;1.03;0.87;;;16.70;99.90;;;;;;5069924;28;20637;-83
2021/09/20 11:24:47;;;;;;;0.70;0.67;;;16.80;99.90;;;;;;5077806;28;20211;-83
2021/09/20 11:27:16;;;;;;;0.57;0.57;;;16.80;99.90;;;;;;5073695;28;20231;-83
2021/09/20 11:29:42;;;;;;;1.07;1.00;;;16.70;99.90;;;;;;5070294;28;20201;-83
2021/09/20 11:32:08;;;;;;;0.47;0.30;;;16.30;99.90;;;;;;5072017;28;20598;-83
2021/09/20 11:34:37;;;;;;;1.13;0.50;;;16.40;99.90;;;;;;5075437;28;20191;-83
2021/09/20 11:37:09;;;;;;;1.40;0.60;;;16.20;99.90;;;;;;5068445;28;20243;-83
2021/09/20 11:39:48;;;;;;;0.40;0.30;;;16.10;99.90;;;;;;5072561;28;20178;-83
2021/09/20 11:42:15;;;;;;;0.57;0.57;;;16.30;99.90;;;;;;5069914;28;20211;-83
2021/09/20 11:44:50;;;;;;;1.60;1.43;;;16.50;99.90;;;;;;5075687;28;20616;-83
2021/09/20 11:47:22;;;;;;;1.13;0.70;;;16.20;99.90;;;;;;5075817;28;20207;-83
2021/09/20 11:49:59;;;;;;;0.93;0.50;;;16.20;99.90;;;;;;5076929;28;20608;-82
2021/09/20 11:52:37;;;;;;;0.67;0.50;;;16.40;99.90;;;;;;5077034;28;20203;-83
2021/09/20 11:55:10;;;;;;;1.90;0.80;;;16.50;99.90;;;;;;5074108;28;20208;-83
2021/09/20 11:57:36;;;;;;;0.50;0.50;;;16.40;99.90;;;;;;5071643;28;20192;-83
2021/09/20 12:00:06;;;;;;;0.50;0.30;;;16.30;99.90;;;;;;5074724;28;20547;-82
2021/09/20 12:02:36;;;;;;;3.40;1.60;;;16.20;99.90;;;;;;5066006;28;20229;-83
2021/09/20 12:05:03;;;;;;;3.07;1.00;;;16.20;99.90;;;;;;5069096;28;20263;-83
2021/09/20 12:07:36;;;;;;;1.77;0.57;;;16.50;99.90;;;;;;5071202;28;20195;-83
2021/09/20 12:10:04;;;;;;;0.60;0.60;;;16.80;99.90;;;;;;5071267;28;20217;-82
2021/09/20 12:12:33;;;;;;;1.13;1.10;;;16.90;99.90;;;;;;5075403;28;20187;-82
2021/09/20 12:15:02;;;;;;;1.33;0.77;;;17.10;99.90;;;;;;5073833;28;20184;-81
2021/09/20 12:18:07;;;;;;;1.43;0.83;;;16.90;99.90;;;;;;5076763;28;20176;-82
2021/09/20 12:20:42;;;;;;;0.50;0.50;;;17.10;99.90;;;;;;4972132;28;20204;-82
2021/09/20 12:23:12;;;;;;;2.43;0.93;;;17.10;99.90;;;;;;5065642;28;20199;-82
2021/09/20 12:25:50;;;;;;;1.00;0.67;;;17.00;99.90;;;;;;5064494;28;20554;-82
2021/09/20 12:28:19;;;;;;;0.73;0.70;;;16.80;99.90;;;;;;5073827;28;20204;-82
2021/09/20 12:30:59;;;;;;;0.40;0.40;;;17.00;99.90;;;;;;5075579;28;20234;-82
2021/09/20 12:33:26;;;;;;;0.97;0.40;;;17.50;99.90;;;;;;5075421;28;20638;-82
2021/09/20 12:35:52;;;;;;;0.97;0.50;;;18.00;99.90;;;;;;5080055;28;20181;-82
2021/09/20 12:38:27;;;;;;;1.40;0.40;;;18.20;99.90;;;;;;5080192;28;20188;-82
2021/09/20 12:40:55;;;;;;;0.93;0.60;;;18.20;99.90;;;;;;5078507;28;20235;-82
2021/09/20 12:43:23;;;;;;;0.33;0.33;;;17.50;99.90;;;;;;5077029;28;20265;-82
2021/09/20 12:45:48;;;;;;;0.60;0.60;;;17.70;99.90;;;;;;5079139;28;20680;-81
2021/09/20 12:48:15;;;;;;;1.80;0.90;;;17.70;99.90;;;;;;5075915;28;20189;-81
2021/09/20 12:50:47;;;;;;;0.67;0.27;;;17.80;99.90;;;;;;5076897;28;20216;-82
2021/09/20 12:53:19;;;;;;;0.57;0.57;;;17.90;99.90;;;;;;5076412;28;20238;-81